createdAt,value
2022-09-30T00:01:36.490Z,6.37
2022-09-30T00:04:05.580Z,4.50
2022-09-30T00:06:36.102Z,4.93
2022-09-30T00:09:05.891Z,5.00
2022-09-30T00:11:35.860Z,4.67
2022-09-30T00:14:04.225Z,3.73
2022-09-30T00:16:34.233Z,4.73
2022-09-30T00:19:03.812Z,5.60
2022-09-30T00:21:32.906Z,4.17
2022-09-30T00:24:01.549Z,3.77
2022-09-30T00:26:31.128Z,4.13
2022-09-30T00:29:00.947Z,4.30
2022-09-30T00:31:31.808Z,4.17
2022-09-30T00:34:11.514Z,4.03
2022-09-30T00:36:43.691Z,4.53
2022-09-30T00:39:14.723Z,3.03
2022-09-30T00:41:44.860Z,3.30
2022-09-30T00:44:50.859Z,3.83
2022-09-30T00:47:34.296Z,3.60
2022-09-30T00:50:03.875Z,3.60
2022-09-30T00:52:33.428Z,3.80
2022-09-30T00:55:08.587Z,4.50
2022-09-30T00:57:38.554Z,4.07
2022-09-30T01:00:07.808Z,4.07
2022-09-30T01:02:36.521Z,3.77
2022-09-30T01:05:05.232Z,3.30
2022-09-30T01:07:33.692Z,4.33
2022-09-30T01:10:03.245Z,3.80
2022-09-30T01:12:31.594Z,4.17
2022-09-30T01:15:02.171Z,3.37
2022-09-30T01:17:37.060Z,3.87
2022-09-30T01:20:42.470Z,4.97
2022-09-30T01:23:38.970Z,2.70
2022-09-30T01:26:29.493Z,3.57
2022-09-30T01:29:39.277Z,3.00
2022-09-30T01:32:22.068Z,3.40
2022-09-30T01:34:55.332Z,2.73
2022-09-30T01:37:32.300Z,3.20
2022-09-30T01:40:07.549Z,3.07
2022-09-30T01:42:38.347Z,3.70
2022-09-30T01:45:16.181Z,3.70
2022-09-30T01:47:50.554Z,4.00
2022-09-30T01:50:21.348Z,3.53
2022-09-30T01:53:04.955Z,3.00
2022-09-30T01:55:37.665Z,3.40
2022-09-30T01:58:11.527Z,2.87
2022-09-30T02:00:44.282Z,3.47
2022-09-30T02:03:17.803Z,2.80
2022-09-30T02:05:52.182Z,3.30
2022-09-30T02:08:24.363Z,2.80
2022-09-30T02:10:56.216Z,3.07
2022-09-30T02:13:31.028Z,3.27
2022-09-30T02:16:01.374Z,2.97
2022-09-30T02:18:39.386Z,3.13
2022-09-30T02:21:09.924Z,4.97
2022-09-30T02:23:42.153Z,4.27
2022-09-30T02:26:14.386Z,5.17
2022-09-30T02:28:48.266Z,4.30
2022-09-30T02:31:18.320Z,3.90
2022-09-30T02:33:51.709Z,3.97
2022-09-30T02:36:24.282Z,3.33
2022-09-30T02:38:59.321Z,4.40
2022-09-30T02:41:29.745Z,4.40
2022-09-30T02:43:58.911Z,4.57
2022-09-30T02:46:30.007Z,5.90
2022-09-30T02:49:04.413Z,6.40
2022-09-30T02:51:40.527Z,4.40
2022-09-30T02:54:19.170Z,4.37
2022-09-30T02:56:56.269Z,3.60
2022-09-30T02:59:26.151Z,4.13
2022-09-30T03:01:54.622Z,2.93
2022-09-30T03:04:26.336Z,6.93
2022-09-30T03:06:54.727Z,4.70
2022-09-30T03:09:27.161Z,3.57
2022-09-30T03:12:02.115Z,3.50
2022-09-30T03:14:47.340Z,3.73
2022-09-30T03:17:30.624Z,4.03
2022-09-30T03:20:07.170Z,4.47
2022-09-30T03:22:48.687Z,5.07
2022-09-30T03:25:22.643Z,4.33
2022-09-30T03:28:03.753Z,7.57
2022-09-30T03:30:34.005Z,4.70
2022-09-30T03:33:10.111Z,5.53
2022-09-30T03:35:46.802Z,4.63
2022-09-30T03:38:17.330Z,4.40
2022-09-30T03:40:49.971Z,3.97
2022-09-30T03:43:21.348Z,4.17
2022-09-30T03:45:52.863Z,3.80
2022-09-30T03:48:23.004Z,4.03
2022-09-30T03:50:53.067Z,3.43
2022-09-30T03:53:21.990Z,3.60
2022-09-30T03:55:51.330Z,3.17
2022-09-30T03:58:22.155Z,3.20
2022-09-30T04:00:52.949Z,3.23
2022-09-30T04:03:22.214Z,8.50
2022-09-30T04:05:52.104Z,3.43
2022-09-30T04:08:20.395Z,3.37
2022-09-30T04:10:48.711Z,3.47
2022-09-30T04:13:17.014Z,3.33
2022-09-30T04:15:45.316Z,4.27
2022-09-30T04:18:13.600Z,7.33
2022-09-30T04:20:41.964Z,7.07
2022-09-30T04:23:11.658Z,3.57
2022-09-30T04:25:39.966Z,3.93
2022-09-30T04:28:07.974Z,3.97
2022-09-30T04:30:36.347Z,3.60
2022-09-30T04:33:04.632Z,4.43
2022-09-30T04:35:32.919Z,3.37
2022-09-30T04:38:01.300Z,5.63
2022-09-30T04:40:31.000Z,5.30
2022-09-30T04:42:59.320Z,4.63
2022-09-30T04:45:27.687Z,4.37
2022-09-30T04:47:56.081Z,5.97
2022-09-30T04:50:24.399Z,5.67
2022-09-30T04:52:52.753Z,4.30
2022-09-30T04:55:20.762Z,4.17
2022-09-30T04:57:51.371Z,5.47
2022-09-30T05:00:20.540Z,2.70
2022-09-30T05:02:48.910Z,3.40
2022-09-30T05:05:17.618Z,2.63
2022-09-30T05:07:45.953Z,3.10
2022-09-30T05:10:14.310Z,3.03
2022-09-30T05:12:42.660Z,2.50
2022-09-30T05:15:12.768Z,4.03
2022-09-30T05:17:41.269Z,3.60
2022-09-30T05:20:11.328Z,3.30
2022-09-30T05:22:39.626Z,3.73
2022-09-30T05:25:08.539Z,3.47
2022-09-30T05:27:36.633Z,3.20
2022-09-30T05:30:06.642Z,3.93
2022-09-30T05:32:36.410Z,2.80
2022-09-30T05:35:05.550Z,4.73
2022-09-30T05:37:33.871Z,5.30
2022-09-30T05:40:02.250Z,3.70
2022-09-30T05:42:36.928Z,3.93
2022-09-30T05:45:06.660Z,3.73
2022-09-30T05:47:36.069Z,3.60
2022-09-30T05:50:04.426Z,3.87
2022-09-30T05:52:32.741Z,5.50
2022-09-30T05:55:01.658Z,4.63
2022-09-30T05:57:30.229Z,4.97
2022-09-30T05:59:59.287Z,3.80
2022-09-30T06:02:27.808Z,3.40
2022-09-30T06:04:57.730Z,5.50
2022-09-30T06:07:26.063Z,3.47
2022-09-30T06:09:54.366Z,4.03
2022-09-30T06:12:22.941Z,4.80
2022-09-30T06:14:51.242Z,3.20
2022-09-30T06:17:19.593Z,6.13
2022-09-30T06:19:48.643Z,4.90
2022-09-30T06:22:18.675Z,5.40
2022-09-30T06:24:48.656Z,3.67
2022-09-30T06:27:19.918Z,4.03
2022-09-30T06:29:48.252Z,3.77
2022-09-30T06:32:17.399Z,4.00
2022-09-30T06:34:45.768Z,4.67
2022-09-30T06:37:16.051Z,4.90
2022-09-30T06:39:45.545Z,4.90
2022-09-30T06:42:13.577Z,4.17
2022-09-30T06:44:51.709Z,5.77
2022-09-30T06:47:25.620Z,4.63
2022-09-30T06:49:58.687Z,4.03
2022-09-30T06:52:27.422Z,4.30
2022-09-30T06:54:57.682Z,5.43
2022-09-30T06:57:27.812Z,4.03
2022-09-30T06:59:56.274Z,4.23
2022-09-30T07:02:24.629Z,4.50
2022-09-30T07:04:53.035Z,4.80
2022-09-30T07:07:21.960Z,5.03
2022-09-30T07:09:50.087Z,5.40
2022-09-30T07:12:19.830Z,5.53
2022-09-30T07:14:48.287Z,5.37
2022-09-30T07:17:16.724Z,5.77
2022-09-30T07:19:45.046Z,7.83
2022-09-30T07:22:29.562Z,6.03
2022-09-30T07:24:58.306Z,7.73
2022-09-30T07:27:28.988Z,5.97
2022-09-30T07:30:08.709Z,6.80
2022-09-30T07:32:38.924Z,10.33
2022-09-30T07:35:07.387Z,6.83
2022-09-30T07:37:36.327Z,6.23
2022-09-30T07:40:07.023Z,6.47
2022-09-30T07:42:38.823Z,7.07
2022-09-30T07:45:07.851Z,7.50
2022-09-30T07:47:36.156Z,8.33
2022-09-30T07:50:05.847Z,8.83
2022-09-30T07:52:34.139Z,7.13
2022-09-30T07:55:02.154Z,8.47
2022-09-30T07:57:30.474Z,7.77
2022-09-30T08:00:11.819Z,9.47
2022-09-30T08:02:48.231Z,7.73
2022-09-30T08:05:16.620Z,7.73
2022-09-30T08:07:44.608Z,8.57
2022-09-30T08:10:13.351Z,7.77
2022-09-30T08:12:41.776Z,8.37
2022-09-30T08:15:11.933Z,7.13
2022-09-30T08:17:40.233Z,10.17
2022-09-30T08:20:13.259Z,7.40
2022-09-30T08:22:42.379Z,7.73
2022-09-30T08:25:10.997Z,8.03
2022-09-30T08:27:38.995Z,9.40
2022-09-30T08:30:08.168Z,13.50
2022-09-30T08:32:37.599Z,9.63
2022-09-30T08:35:06.386Z,8.37
2022-09-30T08:37:34.855Z,11.23
2022-09-30T08:40:03.392Z,9.00
2022-09-30T08:42:54.035Z,9.27
2022-09-30T08:45:35.215Z,11.30
2022-09-30T08:48:18.639Z,8.60
2022-09-30T08:50:57.700Z,9.43
2022-09-30T08:53:30.522Z,11.83
2022-09-30T08:56:02.599Z,10.83
2022-09-30T08:58:33.754Z,9.87
2022-09-30T09:01:06.412Z,10.30
2022-09-30T09:03:35.813Z,11.60
2022-09-30T09:06:19.956Z,12.80
2022-09-30T09:09:02.033Z,10.97
2022-09-30T09:11:43.802Z,11.37
2022-09-30T09:14:25.361Z,12.17
2022-09-30T09:17:04.419Z,13.13
2022-09-30T09:19:39.449Z,13.03
2022-09-30T09:22:11.412Z,11.47
2022-09-30T09:24:43.568Z,11.93
2022-09-30T09:27:20.251Z,12.17
2022-09-30T09:29:57.743Z,11.18
2022-09-30T09:32:28.228Z,11.88
2022-09-30T09:35:01.852Z,12.48
2022-09-30T09:37:58.562Z,11.63
2022-09-30T09:40:35.976Z,12.38
2022-09-30T09:43:13.313Z,12.00
2022-09-30T09:45:50.824Z,11.23
2022-09-30T09:48:19.141Z,11.63
2022-09-30T09:51:02.183Z,11.85
2022-09-30T09:53:45.213Z,11.18
2022-09-30T09:56:18.751Z,11.07
2022-09-30T09:59:09.368Z,10.40
2022-09-30T10:01:39.864Z,11.75
2022-09-30T10:04:11.711Z,11.55
2022-09-30T10:06:50.651Z,12.07
2022-09-30T10:09:25.768Z,10.18
2022-09-30T10:11:54.295Z,11.68
2022-09-30T10:14:23.651Z,11.38
2022-09-30T10:16:58.560Z,12.63
2022-09-30T10:19:29.147Z,10.88
2022-09-30T10:22:19.895Z,11.68
2022-09-30T10:24:50.063Z,11.50
2022-09-30T10:27:29.400Z,10.95
2022-09-30T10:29:57.700Z,9.98
2022-09-30T10:32:27.317Z,9.07
2022-09-30T10:34:59.738Z,9.15
2022-09-30T10:37:29.184Z,9.75
2022-09-30T10:40:01.507Z,10.55
2022-09-30T10:42:32.916Z,9.18
2022-09-30T10:45:06.163Z,8.95
2022-09-30T10:47:37.140Z,10.57
2022-09-30T10:50:08.976Z,8.98
2022-09-30T10:52:44.688Z,8.60
2022-09-30T10:55:30.246Z,9.88
2022-09-30T10:58:04.938Z,10.13
2022-09-30T11:00:34.788Z,9.13
2022-09-30T11:03:09.015Z,9.98
2022-09-30T11:05:41.180Z,8.57
2022-09-30T11:08:17.856Z,10.52
2022-09-30T11:10:52.008Z,8.60
2022-09-30T11:13:24.859Z,8.77
2022-09-30T11:16:02.554Z,7.75
2022-09-30T11:18:36.155Z,8.07
2022-09-30T11:21:10.581Z,8.20
2022-09-30T11:23:47.085Z,8.20
2022-09-30T11:26:22.773Z,8.05
2022-09-30T11:29:05.929Z,7.85
2022-09-30T11:31:38.277Z,7.97
2022-09-30T11:34:28.944Z,11.18
2022-09-30T11:37:03.988Z,9.50
2022-09-30T11:39:57.451Z,9.43
2022-09-30T11:42:34.128Z,8.77
2022-09-30T11:45:09.856Z,8.27
2022-09-30T11:47:54.770Z,8.00
2022-09-30T11:50:33.210Z,8.27
2022-09-30T11:53:14.010Z,8.77
2022-09-30T11:55:58.617Z,7.85
2022-09-30T11:58:41.177Z,7.95
2022-09-30T12:01:22.912Z,7.72
2022-09-30T12:04:00.776Z,8.05
2022-09-30T12:06:34.790Z,8.07
2022-09-30T12:09:15.395Z,8.80
2022-09-30T12:11:51.946Z,7.82
2022-09-30T12:14:26.364Z,8.73
2022-09-30T12:16:56.772Z,8.98
2022-09-30T12:19:31.981Z,8.23
2022-09-30T12:22:05.759Z,9.23
2022-09-30T12:24:38.076Z,7.75
2022-09-30T12:27:17.297Z,9.32
2022-09-30T12:30:10.936Z,8.00
2022-09-30T12:33:17.976Z,6.75
2022-09-30T12:36:20.264Z,8.02
2022-09-30T12:39:27.311Z,7.72
2022-09-30T12:42:13.564Z,8.18
2022-09-30T12:45:20.093Z,7.40
2022-09-30T12:47:50.870Z,8.48
2022-09-30T12:50:22.427Z,8.55
2022-09-30T12:52:50.959Z,8.82
2022-09-30T12:55:31.297Z,9.10
2022-09-30T12:58:02.370Z,8.30
2022-09-30T13:00:37.752Z,7.63
2022-09-30T13:03:08.925Z,8.35
2022-09-30T13:05:53.834Z,7.88
2022-09-30T13:08:44.172Z,8.98
2022-09-30T13:11:36.263Z,7.25
2022-09-30T13:14:33.252Z,8.90
2022-09-30T13:17:26.973Z,6.22
2022-09-30T13:19:57.504Z,6.93
2022-09-30T13:22:56.353Z,6.95
2022-09-30T13:25:24.776Z,7.10
2022-09-30T13:27:55.582Z,6.78
2022-09-30T13:30:46.306Z,7.72
2022-09-30T13:33:41.117Z,7.15
2022-09-30T13:36:31.449Z,6.53
2022-09-30T13:39:19.612Z,6.85
2022-09-30T13:41:56.372Z,6.93
2022-09-30T13:44:32.605Z,6.57
2022-09-30T13:47:14.748Z,6.28
2022-09-30T13:49:48.292Z,6.93
2022-09-30T13:52:22.299Z,6.90
2022-09-30T13:54:51.672Z,6.57
2022-09-30T13:57:24.340Z,7.07
2022-09-30T14:00:07.175Z,7.47
2022-09-30T14:03:08.335Z,6.32
2022-09-30T14:05:51.659Z,7.00
2022-09-30T14:08:42.110Z,7.03
2022-09-30T14:11:30.952Z,5.63
2022-09-30T14:14:14.510Z,6.45
2022-09-30T14:17:19.971Z,7.57
2022-09-30T14:20:07.445Z,5.80
2022-09-30T14:22:37.560Z,6.43
2022-09-30T14:25:12.412Z,6.35
2022-09-30T14:27:53.422Z,6.30
2022-09-30T14:30:23.741Z,5.85
2022-09-30T14:32:55.613Z,6.53
2022-09-30T14:35:28.563Z,6.40
2022-09-30T14:38:00.590Z,6.43
2022-09-30T14:40:31.217Z,6.28
2022-09-30T14:43:02.870Z,6.38
2022-09-30T14:45:34.280Z,6.40
2022-09-30T14:48:08.314Z,6.47
2022-09-30T14:50:44.144Z,6.78
2022-09-30T14:53:26.393Z,6.15
2022-09-30T14:55:54.767Z,6.28
2022-09-30T14:58:28.515Z,5.47
2022-09-30T15:01:17.539Z,7.05
2022-09-30T15:03:49.404Z,6.40
2022-09-30T15:06:24.218Z,6.65
2022-09-30T15:09:00.616Z,6.32
2022-09-30T15:11:29.776Z,6.32
2022-09-30T15:14:03.035Z,6.30
2022-09-30T15:16:32.738Z,5.10
2022-09-30T15:19:01.459Z,5.78
2022-09-30T15:21:33.209Z,6.10
2022-09-30T15:24:02.835Z,5.85
2022-09-30T15:26:33.838Z,5.45
2022-09-30T15:29:05.491Z,5.90
2022-09-30T15:31:34.039Z,6.10
2022-09-30T15:34:07.859Z,7.95
2022-09-30T15:36:38.592Z,6.00
2022-09-30T15:39:08.087Z,6.43
2022-09-30T15:41:41.512Z,6.47
2022-09-30T15:44:18.885Z,6.40
2022-09-30T15:47:09.383Z,6.20
2022-09-30T15:49:47.831Z,5.68
2022-09-30T15:52:36.294Z,6.18
2022-09-30T15:55:19.832Z,6.38
2022-09-30T15:57:51.300Z,6.05
2022-09-30T16:00:34.573Z,6.85
2022-09-30T16:03:28.992Z,6.03
2022-09-30T16:06:07.600Z,5.55
2022-09-30T16:08:43.669Z,6.07
2022-09-30T16:11:21.105Z,5.65
2022-09-30T16:13:50.087Z,5.68
2022-09-30T16:16:22.212Z,5.88
2022-09-30T16:18:52.224Z,5.15
2022-09-30T16:21:40.562Z,4.90
2022-09-30T16:24:45.953Z,4.65
2022-09-30T16:27:33.143Z,4.70
2022-09-30T16:30:02.228Z,4.30
2022-09-30T16:32:34.477Z,6.30
2022-09-30T16:35:02.781Z,5.15
2022-09-30T16:37:31.388Z,5.45
2022-09-30T16:40:15.920Z,5.25
2022-09-30T16:42:44.325Z,5.00
2022-09-30T16:45:14.954Z,5.85
2022-09-30T16:47:43.481Z,5.75
2022-09-30T16:50:18.917Z,6.22
2022-09-30T16:52:46.884Z,5.30
2022-09-30T16:55:16.838Z,5.28
2022-09-30T16:57:45.176Z,5.00
2022-09-30T17:00:18.031Z,4.70
2022-09-30T17:02:47.641Z,4.30
2022-09-30T17:05:18.726Z,4.87
2022-09-30T17:07:48.624Z,4.37
2022-09-30T17:10:22.051Z,5.43
2022-09-30T17:12:51.308Z,4.20
2022-09-30T17:15:19.841Z,4.37
2022-09-30T17:17:48.310Z,4.30
2022-09-30T17:20:16.797Z,3.97
2022-09-30T17:22:46.130Z,3.97
2022-09-30T17:25:14.980Z,4.37
2022-09-30T17:27:44.665Z,3.77
2022-09-30T17:30:13.268Z,4.70
2022-09-30T17:32:42.422Z,4.33
2022-09-30T17:35:11.150Z,4.40
2022-09-30T17:37:42.526Z,3.97
2022-09-30T17:40:31.730Z,4.10
2022-09-30T17:43:11.220Z,5.10
2022-09-30T17:45:41.477Z,4.87
2022-09-30T17:48:10.391Z,4.93
2022-09-30T17:50:39.212Z,4.40
2022-09-30T17:53:07.808Z,4.80
2022-09-30T17:55:36.406Z,4.13
2022-09-30T17:58:07.657Z,4.17
2022-09-30T18:00:36.366Z,4.20
2022-09-30T18:03:04.737Z,4.30
2022-09-30T18:05:33.731Z,4.50
2022-09-30T18:08:02.149Z,4.10
2022-09-30T18:10:30.482Z,5.07
2022-09-30T18:12:59.752Z,4.47
2022-09-30T18:15:29.744Z,5.63
2022-09-30T18:17:58.839Z,5.00
2022-09-30T18:20:27.203Z,4.77
2022-09-30T18:22:55.538Z,5.43
2022-09-30T18:25:23.996Z,5.53
2022-09-30T18:27:56.192Z,5.73
2022-09-30T18:30:24.735Z,5.83
2022-09-30T18:32:55.210Z,5.33
2022-09-30T18:35:25.251Z,5.20
2022-09-30T18:37:54.489Z,4.60
2022-09-30T18:40:24.404Z,4.77
2022-09-30T18:42:56.307Z,5.50
2022-09-30T18:45:24.928Z,5.03
2022-09-30T18:47:57.902Z,5.33
2022-09-30T18:50:27.126Z,4.47
2022-09-30T18:52:55.450Z,4.90
2022-09-30T18:55:23.735Z,5.33
2022-09-30T18:57:55.166Z,5.50
2022-09-30T19:00:23.609Z,5.20
2022-09-30T19:02:53.301Z,6.00
2022-09-30T19:05:23.007Z,5.93
2022-09-30T19:07:51.104Z,5.40
2022-09-30T19:10:19.554Z,4.97
2022-09-30T19:12:47.634Z,5.43
2022-09-30T19:15:16.589Z,6.27
2022-09-30T19:17:45.099Z,5.37
2022-09-30T19:20:13.972Z,5.20
2022-09-30T19:22:43.374Z,5.70
2022-09-30T19:25:12.637Z,5.13
2022-09-30T19:27:41.940Z,5.60
2022-09-30T19:30:12.640Z,5.40
2022-09-30T19:32:41.365Z,5.70
2022-09-30T19:35:11.869Z,4.70
2022-09-30T19:37:44.248Z,5.73
2022-09-30T19:40:21.866Z,5.23
2022-09-30T19:42:50.596Z,5.17
2022-09-30T19:45:23.757Z,4.50
2022-09-30T19:47:54.056Z,4.77
2022-09-30T19:50:22.394Z,4.70
2022-09-30T19:52:57.084Z,4.23
2022-09-30T19:55:27.201Z,4.50
2022-09-30T19:57:55.616Z,4.70
2022-09-30T20:00:24.168Z,4.33
2022-09-30T20:02:52.749Z,4.00
2022-09-30T20:05:21.578Z,4.43
2022-09-30T20:07:51.144Z,4.10
2022-09-30T20:10:20.132Z,6.57
2022-09-30T20:12:49.677Z,5.37
2022-09-30T20:15:35.686Z,4.53
2022-09-30T20:18:03.732Z,7.70
2022-09-30T20:20:42.745Z,5.17
2022-09-30T20:23:11.052Z,4.63
2022-09-30T20:25:39.383Z,5.10
2022-09-30T20:28:09.801Z,4.77
2022-09-30T20:30:45.703Z,4.20
2022-09-30T20:33:21.804Z,3.77
2022-09-30T20:35:50.609Z,4.30
2022-09-30T20:38:24.849Z,4.37
2022-09-30T20:40:56.379Z,4.03
2022-09-30T20:43:30.036Z,3.83
2022-09-30T20:46:00.386Z,3.97
2022-09-30T20:48:33.212Z,4.50
2022-09-30T20:51:02.020Z,3.83
2022-09-30T20:53:30.386Z,3.97
2022-09-30T20:56:01.865Z,3.87
2022-09-30T20:58:31.225Z,3.53
2022-09-30T21:01:03.437Z,3.80
2022-09-30T21:03:34.807Z,3.63
2022-09-30T21:06:03.192Z,3.67
2022-09-30T21:08:31.493Z,4.93
2022-09-30T21:11:03.399Z,3.77
2022-09-30T21:13:33.472Z,4.10
2022-09-30T21:16:01.988Z,3.90
2022-09-30T21:18:30.511Z,4.03
2022-09-30T21:21:00.120Z,3.80
2022-09-30T21:23:28.975Z,3.40
2022-09-30T21:25:59.914Z,3.33
2022-09-30T21:28:28.795Z,3.23
2022-09-30T21:30:58.598Z,3.70
2022-09-30T21:33:27.394Z,4.43
2022-09-30T21:36:02.404Z,3.67
2022-09-30T21:38:31.019Z,3.40
2022-09-30T21:41:01.385Z,3.93
2022-09-30T21:43:31.402Z,4.83
2022-09-30T21:46:02.757Z,4.20
2022-09-30T21:48:33.204Z,3.80
2022-09-30T21:51:01.651Z,4.00
2022-09-30T21:53:30.064Z,3.83
2022-09-30T21:56:00.804Z,3.60
2022-09-30T21:58:31.607Z,3.67
2022-09-30T22:01:04.010Z,3.63
2022-09-30T22:03:37.300Z,3.47
2022-09-30T22:06:07.492Z,4.07
2022-09-30T22:08:40.241Z,3.97
2022-09-30T22:11:11.089Z,4.47
2022-09-30T22:13:40.812Z,3.50
2022-09-30T22:16:10.350Z,3.80
2022-09-30T22:18:38.812Z,3.77
2022-09-30T22:21:08.943Z,3.93
2022-09-30T22:23:37.324Z,3.53
2022-09-30T22:26:10.362Z,4.33
2022-09-30T22:28:38.782Z,6.23
2022-09-30T22:31:19.010Z,3.60
2022-09-30T22:34:05.747Z,4.70
2022-09-30T22:36:51.619Z,3.70
2022-09-30T22:39:20.227Z,4.13
2022-09-30T22:41:49.024Z,3.80
2022-09-30T22:44:17.871Z,3.80
2022-09-30T22:46:48.019Z,4.00
2022-09-30T22:49:16.531Z,4.57
2022-09-30T22:51:44.884Z,4.67
2022-09-30T22:54:12.968Z,3.80
2022-09-30T22:56:41.356Z,3.80
2022-09-30T22:59:09.708Z,4.33
2022-09-30T23:01:38.043Z,4.03
2022-09-30T23:04:08.008Z,3.40
2022-09-30T23:06:36.076Z,4.23
2022-09-30T23:09:05.564Z,4.23
2022-09-30T23:11:35.692Z,4.20
2022-09-30T23:14:04.291Z,4.00
2022-09-30T23:16:32.733Z,4.50
2022-09-30T23:19:01.327Z,3.93
2022-09-30T23:21:32.296Z,4.73
2022-09-30T23:24:00.745Z,3.63
2022-09-30T23:26:31.235Z,4.07
2022-09-30T23:29:00.522Z,4.53
2022-09-30T23:31:29.701Z,4.10
2022-09-30T23:34:00.004Z,5.83
2022-09-30T23:36:30.400Z,4.57
2022-09-30T23:39:04.026Z,4.40
2022-09-30T23:41:33.059Z,4.70
2022-09-30T23:44:01.638Z,4.80
2022-09-30T23:46:30.115Z,4.20
2022-09-30T23:48:58.600Z,4.30
2022-09-30T23:51:26.946Z,3.77
2022-09-30T23:53:55.135Z,4.17
2022-09-30T23:56:24.584Z,4.90
2022-09-30T23:58:52.991Z,4.47
